createdAt,value
2019-05-20T00:00:40.536Z,17.57
2019-05-20T00:03:09.234Z,20.72
2019-05-20T00:05:37.968Z,19.70
2019-05-20T00:08:06.621Z,19.15
2019-05-20T00:10:35.296Z,18.25
2019-05-20T00:13:04.077Z,20.40
2019-05-20T00:15:32.771Z,21.20
2019-05-20T00:18:01.435Z,21.65
2019-05-20T00:20:30.482Z,19.98
2019-05-20T00:22:59.162Z,21.17
2019-05-20T00:25:27.852Z,25.45
2019-05-20T00:27:56.608Z,18.90
2019-05-20T00:30:25.360Z,19.27
2019-05-20T00:32:54.064Z,20.82
2019-05-20T00:35:22.734Z,26.40
2019-05-20T00:37:51.419Z,26.07
2019-05-20T00:40:20.405Z,21.12
2019-05-20T00:42:49.443Z,22.35
2019-05-20T00:45:18.521Z,19.57
2019-05-20T00:47:47.214Z,23.65
2019-05-20T00:50:16.374Z,26.10
2019-05-20T00:52:45.205Z,25.43
2019-05-20T00:55:27.209Z,25.88
2019-05-20T00:57:55.966Z,25.15
2019-05-20T01:00:25.217Z,26.23
2019-05-20T01:02:56.917Z,29.60
2019-05-20T01:05:24.825Z,28.50
2019-05-20T01:07:53.535Z,31.15
2019-05-20T01:10:22.290Z,32.78
2019-05-20T01:12:51.048Z,35.88
2019-05-20T01:15:20.061Z,34.35
2019-05-20T01:17:49.028Z,29.25
2019-05-20T01:20:18.055Z,27.58
2019-05-20T01:22:46.765Z,22.10
2019-05-20T01:25:15.541Z,29.63
2019-05-20T01:27:44.849Z,29.40
2019-05-20T01:30:14.392Z,33.60
2019-05-20T01:32:44.509Z,35.98
2019-05-20T01:35:14.161Z,37.17
2019-05-20T01:37:43.113Z,32.23
2019-05-20T01:40:12.697Z,34.98
2019-05-20T01:42:41.371Z,32.00
2019-05-20T01:45:10.439Z,31.07
2019-05-20T01:47:39.216Z,37.85
2019-05-20T01:50:08.991Z,35.75
2019-05-20T01:52:37.934Z,30.52
2019-05-20T01:55:07.175Z,32.15
2019-05-20T01:57:36.258Z,38.33
2019-05-20T02:00:06.565Z,34.40
2019-05-20T02:02:35.260Z,38.25
2019-05-20T02:05:05.415Z,36.85
2019-05-20T02:07:34.124Z,42.43
2019-05-20T02:10:03.483Z,37.42
2019-05-20T02:12:32.170Z,43.98
2019-05-20T02:15:06.865Z,38.73
2019-05-20T02:17:35.632Z,42.83
2019-05-20T02:20:05.797Z,49.95
2019-05-20T02:22:34.577Z,49.95
2019-05-20T02:25:04.115Z,45.23
2019-05-20T02:27:33.101Z,51.68
2019-05-20T02:30:02.509Z,38.10
2019-05-20T02:32:33.814Z,55.23
2019-05-20T02:35:03.884Z,54.38
2019-05-20T02:37:32.915Z,45.43
2019-05-20T02:40:01.677Z,43.87
2019-05-20T02:42:34.131Z,43.38
2019-05-20T02:45:19.625Z,46.28
2019-05-20T02:47:49.110Z,53.90
2019-05-20T02:50:17.969Z,50.15
2019-05-20T02:52:46.633Z,51.13
2019-05-20T02:55:16.428Z,49.70
2019-05-20T02:57:45.512Z,47.40
2019-05-20T03:00:16.301Z,55.60
2019-05-20T03:02:53.003Z,63.48
2019-05-20T03:05:32.721Z,46.85
2019-05-20T03:08:02.970Z,52.08
2019-05-20T03:10:37.546Z,51.53
2019-05-20T03:13:11.213Z,52.45
2019-05-20T03:15:51.277Z,50.15
2019-05-20T03:18:31.114Z,61.80
2019-05-20T03:21:02.801Z,57.13
2019-05-20T03:23:38.015Z,59.67
2019-05-20T03:26:13.484Z,57.78
2019-05-20T03:32:48.984Z,80.60
2019-05-20T03:40:01.384Z,66.20
2019-05-20T03:45:48.305Z,69.70
2019-05-20T03:48:18.211Z,59.20
2019-05-20T03:50:46.899Z,55.12
2019-05-20T03:53:15.596Z,62.15
2019-05-20T03:55:44.803Z,73.10
2019-05-20T03:58:14.185Z,70.20
2019-05-20T04:00:45.451Z,61.37
2019-05-20T04:03:15.303Z,62.03
2019-05-20T04:05:44.975Z,66.28
2019-05-20T04:08:14.074Z,77.72
2019-05-20T04:10:42.759Z,63.50
2019-05-20T04:13:12.662Z,48.50
2019-05-20T04:15:42.258Z,61.48
2019-05-20T04:18:11.560Z,68.65
2019-05-20T04:20:40.253Z,66.67
2019-05-20T04:23:09.061Z,62.60
2019-05-20T04:25:37.748Z,63.08
2019-05-20T04:28:06.497Z,74.27
2019-05-20T04:30:35.298Z,65.52
2019-05-20T04:33:03.963Z,60.55
2019-05-20T04:35:32.634Z,58.20
2019-05-20T04:38:01.375Z,43.30
2019-05-20T04:40:30.017Z,51.95
2019-05-20T04:42:59.043Z,51.68
2019-05-20T04:45:28.391Z,54.60
2019-05-20T04:47:57.096Z,66.50
2019-05-20T04:50:25.851Z,43.52
2019-05-20T04:52:54.557Z,53.23
2019-05-20T04:55:23.234Z,48.83
2019-05-20T04:57:51.932Z,41.88
2019-05-20T05:00:44.391Z,42.30
2019-05-20T05:03:13.084Z,43.85
2019-05-20T05:05:41.755Z,38.98
2019-05-20T05:08:11.134Z,45.03
2019-05-20T05:10:40.710Z,43.33
2019-05-20T05:13:09.941Z,32.38
2019-05-20T05:15:38.663Z,34.23
2019-05-20T05:18:07.505Z,37.70
2019-05-20T05:20:36.313Z,38.53
2019-05-20T05:23:05.163Z,37.55
2019-05-20T05:25:34.978Z,33.67
2019-05-20T05:28:04.656Z,33.63
2019-05-20T05:30:35.191Z,29.00
2019-05-20T05:33:04.885Z,34.13
2019-05-20T05:35:34.706Z,33.63
2019-05-20T05:38:04.300Z,31.80
2019-05-20T05:40:33.469Z,29.72
2019-05-20T05:43:02.483Z,30.30
2019-05-20T05:45:32.845Z,25.10
2019-05-20T05:48:02.728Z,29.70
2019-05-20T05:50:31.468Z,25.35
2019-05-20T05:53:00.174Z,23.02
2019-05-20T05:55:28.843Z,21.42
2019-05-20T05:57:57.583Z,21.02
2019-05-20T06:00:26.424Z,22.67
2019-05-20T06:02:55.111Z,24.25
2019-05-20T06:05:23.881Z,24.63
2019-05-20T06:07:52.871Z,24.63
2019-05-20T06:10:22.357Z,22.62
2019-05-20T06:12:50.997Z,27.50
2019-05-20T06:15:20.523Z,24.65
2019-05-20T06:17:49.189Z,24.27
2019-05-20T06:20:18.644Z,25.52
2019-05-20T06:22:47.310Z,24.37
2019-05-20T06:25:17.197Z,25.95
2019-05-20T06:27:45.897Z,26.15
2019-05-20T06:30:15.568Z,26.80
2019-05-20T06:32:44.386Z,29.55
2019-05-20T06:35:15.368Z,28.75
2019-05-20T06:37:51.230Z,32.00
2019-05-20T06:40:20.164Z,41.90
2019-05-20T06:42:49.583Z,39.35
2019-05-20T06:45:18.468Z,38.70
2019-05-20T06:47:48.555Z,39.90
2019-05-20T06:50:18.178Z,41.50
2019-05-20T06:52:46.836Z,43.15
2019-05-20T06:55:15.672Z,33.85
2019-05-20T06:57:44.697Z,43.73
2019-05-20T07:00:15.167Z,41.10
2019-05-20T07:02:43.835Z,53.25
2019-05-20T07:05:12.784Z,36.28
2019-05-20T07:07:41.433Z,37.40
2019-05-20T07:10:10.461Z,39.33
2019-05-20T07:12:41.476Z,41.77
2019-05-20T07:15:09.881Z,42.30
2019-05-20T07:17:38.559Z,46.77
2019-05-20T07:20:07.510Z,48.55
2019-05-20T07:22:53.936Z,50.88
2019-05-20T07:25:07.059Z,49.13
2019-05-20T07:27:35.722Z,48.48
2019-05-20T07:30:04.647Z,51.33
2019-05-20T07:32:33.339Z,46.80
2019-05-20T07:35:02.011Z,52.23
2019-05-20T07:37:30.698Z,50.17
2019-05-20T07:39:59.341Z,47.85
2019-05-20T07:42:28.004Z,50.40
2019-05-20T07:44:56.765Z,46.28
2019-05-20T07:47:25.768Z,49.65
2019-05-20T07:49:54.993Z,48.48
2019-05-20T07:52:25.472Z,48.78
2019-05-20T07:54:56.178Z,48.87
2019-05-20T07:57:28.053Z,52.30
2019-05-20T07:59:57.996Z,47.80
2019-05-20T08:02:29.012Z,45.28
2019-05-20T08:04:57.698Z,46.40
2019-05-20T08:07:35.665Z,43.68
2019-05-20T08:09:56.827Z,48.23
2019-05-20T08:12:25.587Z,50.08
2019-05-20T08:14:54.324Z,44.77
2019-05-20T08:17:23.370Z,49.75
2019-05-20T08:19:52.043Z,43.52
2019-05-20T08:22:20.721Z,44.00
2019-05-20T08:24:49.389Z,44.93
2019-05-20T08:27:18.073Z,42.98
2019-05-20T08:29:46.728Z,43.35
2019-05-20T08:32:15.432Z,45.67
2019-05-20T08:34:44.107Z,44.48
2019-05-20T08:37:14.993Z,53.50
2019-05-20T08:39:43.668Z,45.17
2019-05-20T08:42:12.459Z,44.50
2019-05-20T08:44:41.109Z,45.65
2019-05-20T08:47:09.808Z,44.90
2019-05-20T08:49:38.804Z,42.10
2019-05-20T08:52:07.750Z,45.33
2019-05-20T08:54:40.140Z,52.70
2019-05-20T08:57:06.919Z,48.15
2019-05-20T08:59:35.597Z,54.38
2019-05-20T09:02:04.347Z,42.62
2019-05-20T09:04:33.034Z,41.75
2019-05-20T09:07:01.888Z,43.23
2019-05-20T09:09:30.706Z,44.23
2019-05-20T09:11:59.451Z,47.25
2019-05-20T09:14:28.257Z,54.05
2019-05-20T09:16:56.958Z,55.12
2019-05-20T09:19:25.772Z,47.08
2019-05-20T09:21:54.466Z,50.63
2019-05-20T09:24:23.144Z,46.13
2019-05-20T09:26:51.852Z,48.65
2019-05-20T09:29:20.544Z,55.92
2019-05-20T09:31:49.729Z,49.03
2019-05-20T09:34:18.770Z,47.70
2019-05-20T09:36:47.619Z,43.75
2019-05-20T09:39:16.432Z,50.63
2019-05-20T09:41:45.133Z,58.85
2019-05-20T09:44:13.811Z,51.45
2019-05-20T09:46:42.511Z,55.40
2019-05-20T09:49:11.192Z,55.30
2019-05-20T09:51:39.890Z,46.75
2019-05-20T09:54:08.619Z,51.63
2019-05-20T09:56:37.309Z,47.08
2019-05-20T09:59:06.070Z,50.43
2019-05-20T10:01:34.781Z,48.58
2019-05-20T10:04:03.701Z,47.55
2019-05-20T10:06:32.365Z,47.88
2019-05-20T10:09:01.079Z,56.53
2019-05-20T10:11:29.741Z,45.17
2019-05-20T10:13:58.426Z,45.05
2019-05-20T10:16:27.120Z,43.10
2019-05-20T10:18:55.977Z,45.20
2019-05-20T10:21:24.684Z,44.33
2019-05-20T10:23:53.356Z,42.27
2019-05-20T10:26:22.015Z,42.20
2019-05-20T10:28:50.764Z,39.50
2019-05-20T10:31:19.457Z,40.00
2019-05-20T10:33:48.173Z,35.92
2019-05-20T10:36:16.875Z,37.73
2019-05-20T10:38:58.144Z,38.80
2019-05-20T10:41:15.993Z,39.38
2019-05-20T10:43:44.745Z,37.33
2019-05-20T10:46:13.502Z,39.38
2019-05-20T10:48:42.181Z,38.42
2019-05-20T10:51:10.928Z,39.67
2019-05-20T10:53:39.611Z,36.50
2019-05-20T10:56:08.363Z,37.15
2019-05-20T10:58:37.044Z,40.95
2019-05-20T11:01:05.816Z,41.28
2019-05-20T11:03:34.484Z,39.58
2019-05-20T11:06:03.295Z,37.23
2019-05-20T11:08:32.087Z,34.55
2019-05-20T11:11:00.787Z,41.63
2019-05-20T11:13:29.430Z,36.53
2019-05-20T11:15:58.121Z,37.70
2019-05-20T11:18:26.867Z,40.80
2019-05-20T11:20:55.741Z,37.85
2019-05-20T11:23:24.436Z,42.05
2019-05-20T11:25:53.087Z,38.35
2019-05-20T11:28:21.753Z,35.13
2019-05-20T11:30:50.434Z,36.93
2019-05-20T11:33:19.100Z,35.90
2019-05-20T11:35:47.798Z,33.98
2019-05-20T11:38:16.527Z,36.70
2019-05-20T11:40:45.692Z,40.80
2019-05-20T11:43:14.440Z,38.42
2019-05-20T11:45:43.103Z,38.17
2019-05-20T11:48:11.779Z,36.03
2019-05-20T11:50:40.464Z,36.40
2019-05-20T11:53:09.138Z,39.13
2019-05-20T11:55:37.816Z,37.03
2019-05-20T11:58:15.967Z,38.88
2019-05-20T12:00:37.213Z,38.30
2019-05-20T12:03:05.923Z,40.60
2019-05-20T12:05:34.579Z,41.20
2019-05-20T12:08:03.276Z,44.08
2019-05-20T12:10:31.953Z,42.23
2019-05-20T12:13:00.625Z,39.67
2019-05-20T12:15:29.323Z,38.30
2019-05-20T12:17:57.985Z,44.18
2019-05-20T12:20:26.658Z,43.20
2019-05-20T12:22:55.353Z,47.05
2019-05-20T12:25:24.009Z,44.25
2019-05-20T12:27:52.675Z,43.50
2019-05-20T12:30:21.546Z,42.30
2019-05-20T12:32:50.217Z,41.95
2019-05-20T12:35:18.974Z,42.27
2019-05-20T12:37:47.662Z,39.58
2019-05-20T12:40:16.484Z,39.25
2019-05-20T12:42:45.144Z,41.33
2019-05-20T12:45:15.223Z,41.20
2019-05-20T12:47:43.906Z,42.27
2019-05-20T12:50:13.410Z,44.10
2019-05-20T12:52:42.173Z,45.48
2019-05-20T12:55:11.601Z,40.58
2019-05-20T12:57:40.375Z,38.50
2019-05-20T13:00:11.892Z,46.18
2019-05-20T13:02:41.059Z,43.42
2019-05-20T13:05:10.497Z,44.88
2019-05-20T13:07:39.190Z,44.70
2019-05-20T13:10:26.534Z,44.03
2019-05-20T13:12:39.064Z,43.15
2019-05-20T13:15:08.301Z,40.58
2019-05-20T13:17:37.074Z,43.28
2019-05-20T13:20:06.723Z,43.80
2019-05-20T13:22:35.422Z,42.48
2019-05-20T13:25:04.174Z,37.95
2019-05-20T13:27:32.916Z,39.92
2019-05-20T13:30:01.604Z,41.18
2019-05-20T13:32:30.291Z,40.67
2019-05-20T13:34:58.998Z,41.33
2019-05-20T13:37:27.674Z,39.92
2019-05-20T13:39:56.362Z,41.75
2019-05-20T13:42:25.033Z,41.73
2019-05-20T13:44:53.704Z,41.70
2019-05-20T13:47:22.389Z,40.25
2019-05-20T13:49:51.138Z,44.08
2019-05-20T13:52:19.911Z,42.88
2019-05-20T13:54:48.677Z,43.78
2019-05-20T13:57:17.378Z,40.08
2019-05-20T13:59:46.072Z,39.50
2019-05-20T14:02:14.821Z,47.23
2019-05-20T14:04:43.519Z,42.73
2019-05-20T14:07:12.186Z,44.48
2019-05-20T14:09:40.867Z,42.13
2019-05-20T14:12:09.533Z,42.03
2019-05-20T14:14:38.217Z,41.63
2019-05-20T14:17:06.973Z,40.88
2019-05-20T14:19:35.947Z,38.95
2019-05-20T14:22:05.055Z,40.40
2019-05-20T14:24:34.077Z,41.73
2019-05-20T14:27:02.811Z,46.53
2019-05-20T14:29:31.450Z,39.83
2019-05-20T14:32:03.053Z,44.20
2019-05-20T14:34:31.931Z,43.90
2019-05-20T14:37:00.655Z,44.67
2019-05-20T14:39:30.211Z,50.48
2019-05-20T14:41:58.880Z,47.55
2019-05-20T14:44:27.561Z,49.40
2019-05-20T14:46:56.268Z,46.60
2019-05-20T14:49:24.935Z,49.90
2019-05-20T14:51:53.619Z,51.25
2019-05-20T14:54:23.952Z,52.65
2019-05-20T14:56:52.630Z,52.83
2019-05-20T14:59:21.936Z,52.80
2019-05-20T15:01:50.609Z,55.73
2019-05-20T15:04:19.313Z,55.58
2019-05-20T15:06:50.864Z,56.33
2019-05-20T15:09:21.650Z,55.75
2019-05-20T15:11:50.817Z,40.08
2019-05-20T15:14:21.508Z,36.40
2019-05-20T15:16:50.250Z,13.05
2019-05-20T15:19:20.191Z,17.35
2019-05-20T15:21:48.865Z,11.10
2019-05-20T15:24:17.559Z,9.93
2019-05-20T15:26:46.269Z,9.35
2019-05-20T15:29:27.661Z,10.00
2019-05-20T15:31:45.736Z,13.78
2019-05-20T15:34:14.403Z,9.75
2019-05-20T15:36:43.170Z,15.18
2019-05-20T15:39:11.873Z,13.13
2019-05-20T15:41:40.540Z,11.15
2019-05-20T15:44:09.995Z,9.75
2019-05-20T15:46:38.652Z,8.90
2019-05-20T15:49:07.328Z,7.83
2019-05-20T15:51:36.040Z,10.48
2019-05-20T15:54:04.853Z,8.98
2019-05-20T15:56:33.483Z,10.15
2019-05-20T15:59:02.448Z,20.15
2019-05-20T16:01:31.207Z,10.82
2019-05-20T16:03:59.883Z,12.95
2019-05-20T16:06:28.733Z,13.05
2019-05-20T16:08:58.678Z,12.63
2019-05-20T16:11:29.329Z,15.63
2019-05-20T16:13:58.546Z,13.95
2019-05-20T16:16:27.618Z,11.35
2019-05-20T16:18:56.275Z,12.93
2019-05-20T16:21:24.943Z,13.30
2019-05-20T16:23:53.635Z,14.73
2019-05-20T16:26:22.391Z,12.28
2019-05-20T16:28:51.074Z,15.68
2019-05-20T16:31:19.760Z,14.43
2019-05-20T16:33:48.514Z,14.75
2019-05-20T16:36:17.201Z,14.15
2019-05-20T16:38:45.893Z,15.55
2019-05-20T16:41:14.583Z,16.48
2019-05-20T16:43:43.340Z,13.62
2019-05-20T16:46:11.997Z,15.68
2019-05-20T16:48:40.700Z,13.93
2019-05-20T16:51:09.374Z,20.37
2019-05-20T16:53:38.034Z,14.10
2019-05-20T16:56:06.725Z,13.35
2019-05-20T16:58:35.411Z,11.18
2019-05-20T17:01:04.152Z,13.10
2019-05-20T17:03:32.815Z,13.45
2019-05-20T17:06:01.505Z,13.58
2019-05-20T17:08:30.187Z,13.62
2019-05-20T17:10:58.919Z,12.45
2019-05-20T17:13:27.606Z,13.60
2019-05-20T17:15:56.305Z,13.25
2019-05-20T17:18:24.952Z,10.70
2019-05-20T17:20:53.711Z,12.23
2019-05-20T17:23:22.482Z,10.88
2019-05-20T17:25:51.228Z,10.68
2019-05-20T17:28:19.953Z,10.98
2019-05-20T17:30:48.630Z,12.07
2019-05-20T17:33:17.285Z,12.88
2019-05-20T17:35:46.082Z,23.22
2019-05-20T17:38:14.760Z,13.98
2019-05-20T17:40:43.784Z,13.40
2019-05-20T17:43:12.446Z,14.40
2019-05-20T17:45:41.204Z,16.45
2019-05-20T17:48:09.895Z,17.45
2019-05-20T17:50:38.720Z,18.95
2019-05-20T17:53:07.388Z,19.02
2019-05-20T17:55:36.200Z,21.90
2019-05-20T17:58:04.874Z,17.40
2019-05-20T18:00:33.524Z,18.77
2019-05-20T18:03:02.203Z,23.55
2019-05-20T18:05:30.896Z,26.90
2019-05-20T18:07:59.563Z,26.60
2019-05-20T18:10:28.213Z,35.05
2019-05-20T18:12:56.882Z,36.73
2019-05-20T18:15:25.609Z,27.67
2019-05-20T18:17:54.304Z,33.58
2019-05-20T18:20:23.033Z,35.78
2019-05-20T18:22:51.694Z,41.77
2019-05-20T18:25:20.389Z,38.30
2019-05-20T18:27:49.209Z,52.50
2019-05-20T18:30:18.113Z,38.08
2019-05-20T18:32:46.800Z,37.17
2019-05-20T18:35:15.733Z,42.45
2019-05-20T18:37:44.450Z,48.38
2019-05-20T18:40:14.981Z,46.08
2019-05-20T18:42:43.964Z,50.52
2019-05-20T18:45:12.768Z,53.78
2019-05-20T18:47:41.524Z,55.35
2019-05-20T18:50:11.879Z,50.80
2019-05-20T18:52:40.536Z,56.53
2019-05-20T18:55:09.372Z,54.30
2019-05-20T18:57:38.068Z,51.18
2019-05-20T19:00:08.679Z,57.98
2019-05-20T19:02:37.329Z,61.18
2019-05-20T19:05:07.301Z,64.20
2019-05-20T19:07:35.965Z,58.40
2019-05-20T19:10:05.282Z,60.10
2019-05-20T19:12:33.985Z,58.75
2019-05-20T19:15:02.720Z,49.00
2019-05-20T19:17:31.395Z,34.05
2019-05-20T19:20:00.426Z,42.65
2019-05-20T19:22:29.106Z,45.12
2019-05-20T19:24:57.778Z,48.28
2019-05-20T19:27:26.471Z,48.55
2019-05-20T19:29:55.128Z,47.35
2019-05-20T19:32:24.469Z,42.15
2019-05-20T19:34:53.175Z,43.35
2019-05-20T19:37:21.852Z,45.83
2019-05-20T19:39:50.533Z,53.83
2019-05-20T19:42:19.323Z,59.80
2019-05-20T19:44:47.984Z,63.65
2019-05-20T19:47:16.729Z,55.35
2019-05-20T19:49:45.414Z,50.30
2019-05-20T19:52:14.175Z,54.35
2019-05-20T19:54:42.833Z,58.25
2019-05-20T19:57:11.518Z,51.80
2019-05-20T19:59:40.467Z,56.02
2019-05-20T20:02:16.788Z,60.45
2019-05-20T20:04:39.624Z,63.55
2019-05-20T20:07:08.292Z,62.17
2019-05-20T20:09:36.982Z,65.62
2019-05-20T20:12:05.683Z,68.25
2019-05-20T20:14:34.344Z,84.58
2019-05-20T20:17:03.021Z,77.00
2019-05-20T20:19:32.014Z,63.90
2019-05-20T20:22:00.695Z,76.35
2019-05-20T20:24:29.705Z,85.05
2019-05-20T20:26:58.441Z,58.00
2019-05-20T20:29:27.129Z,72.27
2019-05-20T20:31:55.909Z,75.67
2019-05-20T20:34:24.610Z,77.60
2019-05-20T20:36:53.371Z,86.87
2019-05-20T20:39:22.411Z,81.67
2019-05-20T20:41:51.407Z,95.65
2019-05-20T20:44:20.073Z,63.78
2019-05-20T20:46:48.822Z,53.78
2019-05-20T20:49:17.512Z,48.60
2019-05-20T20:51:46.192Z,56.40
2019-05-20T20:54:14.894Z,57.40
2019-05-20T20:56:43.562Z,52.50
2019-05-20T20:59:12.251Z,41.40
2019-05-20T21:01:40.934Z,42.48
2019-05-20T21:04:09.591Z,45.50
2019-05-20T21:06:38.254Z,48.40
2019-05-20T21:09:07.204Z,53.25
2019-05-20T21:11:35.904Z,60.28
2019-05-20T21:14:04.642Z,58.28
2019-05-20T21:16:33.292Z,55.80
2019-05-20T21:19:02.082Z,53.73
2019-05-20T21:21:30.762Z,52.83
2019-05-20T21:23:59.437Z,51.70
2019-05-20T21:26:28.129Z,53.33
2019-05-20T21:28:56.800Z,56.80
2019-05-20T21:31:25.464Z,51.08
2019-05-20T21:33:54.149Z,52.30
2019-05-20T21:36:22.811Z,59.83
2019-05-20T21:38:51.542Z,61.10
2019-05-20T21:41:20.176Z,63.13
2019-05-20T21:43:48.864Z,62.67
2019-05-20T21:46:17.545Z,56.35
2019-05-20T21:48:46.209Z,56.90
2019-05-20T21:51:14.887Z,58.28
2019-05-20T21:53:43.635Z,58.13
2019-05-20T21:56:12.314Z,63.15
2019-05-20T21:58:41.094Z,62.25
2019-05-20T22:01:09.765Z,64.58
2019-05-20T22:03:38.455Z,62.88
2019-05-20T22:06:07.288Z,66.57
2019-05-20T22:08:35.973Z,61.95
2019-05-20T22:11:04.637Z,69.47
2019-05-20T22:13:33.328Z,72.05
2019-05-20T22:16:02.066Z,72.27
2019-05-20T22:18:30.800Z,75.30
2019-05-20T22:20:59.460Z,73.35
2019-05-20T22:23:33.610Z,78.37
2019-05-20T22:26:02.316Z,75.22
2019-05-20T22:28:30.970Z,58.52
2019-05-20T22:30:59.635Z,57.13
2019-05-20T22:33:40.449Z,41.92
2019-05-20T22:35:58.732Z,49.33
2019-05-20T22:38:27.405Z,52.90
2019-05-20T22:40:56.077Z,47.17
2019-05-20T22:43:24.747Z,43.85
2019-05-20T22:45:53.533Z,43.23
2019-05-20T22:48:22.237Z,42.35
2019-05-20T22:50:50.967Z,47.17
2019-05-20T22:53:19.660Z,45.73
2019-05-20T22:55:48.325Z,48.85
2019-05-20T22:58:17.088Z,43.92
2019-05-20T23:00:45.831Z,37.95
2019-05-20T23:03:14.565Z,35.08
2019-05-20T23:05:43.172Z,45.43
2019-05-20T23:08:11.868Z,51.28
2019-05-20T23:10:40.531Z,54.42
2019-05-20T23:13:09.213Z,52.75
2019-05-20T23:15:37.898Z,48.98
2019-05-20T23:18:06.574Z,46.95
2019-05-20T23:20:35.352Z,48.10
2019-05-20T23:23:04.015Z,52.03
2019-05-20T23:25:32.966Z,48.00
2019-05-20T23:28:01.636Z,48.30
2019-05-20T23:30:30.331Z,48.87
2019-05-20T23:32:59.019Z,47.38
2019-05-20T23:35:27.696Z,36.42
2019-05-20T23:37:56.387Z,28.32
2019-05-20T23:40:25.066Z,32.35
2019-05-20T23:42:53.779Z,28.32
2019-05-20T23:45:22.428Z,23.47
2019-05-20T23:47:51.163Z,22.77
2019-05-20T23:50:19.891Z,24.20
2019-05-20T23:52:48.632Z,25.62
2019-05-20T23:55:17.459Z,27.15
2019-05-20T23:57:46.144Z,28.27
